createdAt,value
2017-12-17T00:00:56.516Z,1.73
2017-12-17T00:03:25.558Z,2.00
2017-12-17T00:05:53.822Z,2.05
2017-12-17T00:08:22.120Z,2.12
2017-12-17T00:10:50.398Z,1.87
2017-12-17T00:13:19.381Z,2.28
2017-12-17T00:15:47.705Z,2.65
2017-12-17T00:18:15.946Z,2.10
2017-12-17T00:20:44.951Z,2.55
2017-12-17T00:23:13.262Z,2.10
2017-12-17T00:25:41.510Z,2.40
2017-12-17T00:28:09.983Z,2.00
2017-12-17T00:30:38.232Z,2.12
2017-12-17T00:33:06.482Z,2.12
2017-12-17T00:35:34.730Z,2.12
2017-12-17T00:38:02.959Z,2.20
2017-12-17T00:40:32.231Z,2.50
2017-12-17T00:43:00.453Z,2.37
2017-12-17T00:45:29.457Z,2.22
2017-12-17T00:47:58.473Z,2.47
2017-12-17T00:50:26.710Z,2.12
2017-12-17T00:52:54.981Z,1.92
2017-12-17T00:55:23.235Z,2.22
2017-12-17T00:57:52.344Z,2.10
2017-12-17T01:00:20.589Z,1.92
2017-12-17T01:02:48.945Z,2.22
2017-12-17T01:05:17.222Z,1.95
2017-12-17T01:07:45.523Z,1.80
2017-12-17T01:10:13.770Z,2.00
2017-12-17T01:12:42.005Z,2.00
2017-12-17T01:15:10.281Z,2.17
2017-12-17T01:17:38.547Z,2.15
2017-12-17T01:20:06.796Z,2.00
2017-12-17T01:22:35.064Z,2.35
2017-12-17T01:25:03.270Z,2.20
2017-12-17T01:27:31.501Z,2.47
2017-12-17T01:29:59.743Z,2.05
2017-12-17T01:32:27.961Z,2.00
2017-12-17T01:35:08.101Z,2.00
2017-12-17T01:37:36.319Z,2.30
2017-12-17T01:40:04.530Z,2.58
2017-12-17T01:42:33.521Z,1.95
2017-12-17T01:45:01.832Z,2.47
2017-12-17T01:47:30.051Z,2.00
2017-12-17T01:49:58.266Z,2.17
2017-12-17T01:52:26.515Z,2.53
2017-12-17T01:54:55.540Z,2.22
2017-12-17T01:57:24.590Z,2.42
2017-12-17T01:59:52.842Z,2.00
2017-12-17T02:02:21.066Z,1.73
2017-12-17T02:04:49.310Z,2.10
2017-12-17T02:07:17.509Z,2.25
2017-12-17T02:09:45.727Z,2.15
2017-12-17T02:12:13.945Z,2.22
2017-12-17T02:14:42.175Z,2.30
2017-12-17T02:17:10.473Z,2.35
2017-12-17T02:19:38.707Z,2.33
2017-12-17T02:22:07.791Z,1.92
2017-12-17T02:24:36.811Z,2.05
2017-12-17T02:27:05.035Z,2.30
2017-12-17T02:29:33.309Z,2.20
2017-12-17T02:32:01.584Z,2.30
2017-12-17T02:34:29.865Z,2.20
2017-12-17T02:36:58.079Z,2.20
2017-12-17T02:39:27.133Z,2.45
2017-12-17T02:41:55.326Z,1.95
2017-12-17T02:44:23.602Z,2.10
2017-12-17T02:46:51.823Z,2.12
2017-12-17T02:49:20.100Z,1.85
2017-12-17T02:51:48.345Z,2.03
2017-12-17T02:54:16.562Z,1.90
2017-12-17T02:56:44.804Z,2.05
2017-12-17T02:59:13.030Z,2.28
2017-12-17T03:01:41.352Z,2.20
2017-12-17T03:04:09.583Z,1.60
2017-12-17T03:06:37.881Z,1.90
2017-12-17T03:09:06.100Z,1.98
2017-12-17T03:11:34.354Z,2.62
2017-12-17T03:14:02.585Z,2.35
2017-12-17T03:16:30.840Z,1.80
2017-12-17T03:18:59.067Z,2.50
2017-12-17T03:21:27.292Z,1.62
2017-12-17T03:23:55.588Z,1.90
2017-12-17T03:26:23.836Z,1.95
2017-12-17T03:28:52.086Z,1.77
2017-12-17T03:31:20.328Z,2.12
2017-12-17T03:33:48.556Z,1.50
2017-12-17T03:36:16.854Z,1.60
2017-12-17T03:38:45.059Z,1.50
2017-12-17T03:41:13.263Z,1.75
2017-12-17T03:43:42.259Z,1.75
2017-12-17T03:46:10.483Z,1.60
2017-12-17T03:48:38.709Z,1.62
2017-12-17T03:51:06.941Z,2.00
2017-12-17T03:53:35.278Z,1.87
2017-12-17T03:56:03.437Z,1.75
2017-12-17T03:58:31.678Z,1.85
2017-12-17T04:00:59.886Z,1.60
2017-12-17T04:03:28.873Z,1.55
2017-12-17T04:05:57.871Z,1.75
2017-12-17T04:08:26.094Z,1.50
2017-12-17T04:10:54.323Z,1.60
2017-12-17T04:13:23.350Z,1.60
2017-12-17T04:15:51.694Z,1.48
2017-12-17T04:18:21.340Z,1.17
2017-12-17T04:20:49.546Z,1.40
2017-12-17T04:23:17.792Z,1.40
2017-12-17T04:25:45.998Z,1.50
2017-12-17T04:28:14.254Z,1.27
2017-12-17T04:30:42.507Z,1.37
2017-12-17T04:33:10.813Z,1.20
2017-12-17T04:35:39.007Z,1.30
2017-12-17T04:38:07.252Z,1.55
2017-12-17T04:40:35.519Z,1.30
2017-12-17T04:43:03.718Z,1.10
2017-12-17T04:45:31.946Z,1.27
2017-12-17T04:48:00.252Z,1.50
2017-12-17T04:50:28.563Z,1.40
2017-12-17T04:52:56.798Z,1.52
2017-12-17T04:55:25.037Z,1.42
2017-12-17T04:57:54.004Z,1.30
2017-12-17T05:00:22.879Z,1.35
2017-12-17T05:02:51.127Z,1.40
2017-12-17T05:05:19.338Z,1.37
2017-12-17T05:07:47.597Z,1.60
2017-12-17T05:10:15.873Z,1.55
2017-12-17T05:12:44.098Z,1.23
2017-12-17T05:15:13.095Z,1.65
2017-12-17T05:17:41.330Z,1.27
2017-12-17T05:20:09.608Z,1.30
2017-12-17T05:22:37.870Z,1.20
2017-12-17T05:25:06.081Z,1.40
2017-12-17T05:27:35.050Z,1.10
2017-12-17T05:30:03.260Z,1.40
2017-12-17T05:32:31.502Z,1.50
2017-12-17T05:34:59.769Z,1.60
2017-12-17T05:37:28.018Z,1.73
2017-12-17T05:39:56.325Z,2.00
2017-12-17T05:42:24.574Z,1.55
2017-12-17T05:44:52.784Z,1.60
2017-12-17T05:47:21.041Z,1.75
2017-12-17T05:49:49.233Z,2.12
2017-12-17T05:52:17.444Z,1.85
2017-12-17T05:54:45.720Z,1.77
2017-12-17T05:57:14.692Z,1.70
2017-12-17T05:59:42.986Z,1.50
2017-12-17T06:02:11.982Z,2.22
2017-12-17T06:04:41.342Z,2.30
2017-12-17T06:07:09.558Z,1.90
2017-12-17T06:09:37.787Z,1.90
2017-12-17T06:12:06.078Z,2.00
2017-12-17T06:14:34.335Z,1.70
2017-12-17T06:17:02.546Z,1.75
2017-12-17T06:19:31.522Z,1.50
2017-12-17T06:21:59.772Z,2.10
2017-12-17T06:24:28.003Z,1.98
2017-12-17T06:26:57.041Z,1.75
2017-12-17T06:29:25.275Z,1.70
2017-12-17T06:31:53.491Z,1.70
2017-12-17T06:34:21.703Z,1.92
2017-12-17T06:36:49.919Z,1.55
2017-12-17T06:39:18.167Z,1.70
2017-12-17T06:41:47.132Z,1.80
2017-12-17T06:44:15.382Z,1.75
2017-12-17T06:46:43.634Z,1.70
2017-12-17T06:49:11.858Z,1.60
2017-12-17T06:51:40.075Z,1.92
2017-12-17T06:54:08.311Z,1.50
2017-12-17T06:56:36.555Z,1.60
2017-12-17T06:59:04.755Z,2.00
2017-12-17T07:01:33.008Z,1.50
2017-12-17T07:04:01.284Z,1.33
2017-12-17T07:06:29.510Z,1.70
2017-12-17T07:08:58.503Z,1.80
2017-12-17T07:11:27.491Z,1.50
2017-12-17T07:13:55.702Z,1.90
2017-12-17T07:16:23.955Z,2.00
2017-12-17T07:18:52.271Z,2.10
2017-12-17T07:21:20.572Z,1.83
2017-12-17T07:23:49.574Z,2.50
2017-12-17T07:26:17.847Z,1.90
2017-12-17T07:28:46.077Z,1.90
2017-12-17T07:31:14.294Z,1.70
2017-12-17T07:33:42.548Z,2.03
2017-12-17T07:36:10.789Z,1.90
2017-12-17T07:38:39.778Z,2.30
2017-12-17T07:41:08.827Z,2.25
2017-12-17T07:43:37.083Z,1.92
2017-12-17T07:46:05.302Z,2.12
2017-12-17T07:48:33.525Z,2.03
2017-12-17T07:51:01.746Z,1.95
2017-12-17T07:53:29.981Z,1.80
2017-12-17T07:55:58.211Z,2.10
2017-12-17T07:58:26.430Z,1.92
2017-12-17T08:00:54.735Z,1.90
2017-12-17T08:03:23.096Z,1.58
2017-12-17T08:05:51.330Z,1.73
2017-12-17T08:08:20.406Z,1.95
2017-12-17T08:10:48.630Z,2.08
2017-12-17T08:13:16.952Z,2.00
2017-12-17T08:15:45.299Z,2.25
2017-12-17T08:18:13.551Z,1.73
2017-12-17T08:20:42.660Z,1.85
2017-12-17T08:23:10.937Z,1.83
2017-12-17T08:25:39.175Z,2.03
2017-12-17T08:28:08.170Z,2.00
2017-12-17T08:30:37.179Z,1.90
2017-12-17T08:33:05.580Z,2.05
2017-12-17T08:35:33.838Z,2.30
2017-12-17T08:38:02.131Z,2.45
2017-12-17T08:40:30.361Z,1.75
2017-12-17T08:42:58.684Z,1.80
2017-12-17T08:45:26.938Z,2.00
2017-12-17T08:47:55.154Z,2.40
2017-12-17T08:50:23.374Z,2.10
2017-12-17T08:52:52.406Z,2.05
2017-12-17T08:55:20.684Z,1.85
2017-12-17T08:57:48.912Z,2.10
2017-12-17T09:00:18.710Z,2.35
2017-12-17T09:02:47.294Z,2.50
2017-12-17T09:05:15.541Z,2.65
2017-12-17T09:07:43.798Z,2.00
2017-12-17T09:10:12.084Z,2.55
2017-12-17T09:12:40.316Z,2.00
2017-12-17T09:15:10.162Z,2.42
2017-12-17T09:17:38.402Z,2.62
2017-12-17T09:20:07.414Z,1.92
2017-12-17T09:22:35.756Z,2.45
2017-12-17T09:25:03.946Z,2.00
2017-12-17T09:27:33.025Z,2.40
2017-12-17T09:30:01.301Z,2.03
2017-12-17T09:32:29.554Z,2.22
2017-12-17T09:34:57.783Z,2.30
2017-12-17T09:37:27.641Z,3.05
2017-12-17T09:39:57.610Z,2.15
2017-12-17T09:42:26.593Z,2.60
2017-12-17T09:44:54.803Z,2.40
2017-12-17T09:47:23.031Z,2.05
2017-12-17T09:49:51.361Z,2.55
2017-12-17T09:52:19.614Z,2.42
2017-12-17T09:54:48.614Z,2.10
2017-12-17T09:57:16.874Z,2.37
2017-12-17T09:59:45.959Z,2.25
2017-12-17T10:02:14.943Z,1.70
2017-12-17T10:04:43.286Z,2.80
2017-12-17T10:07:11.463Z,2.30
2017-12-17T10:09:39.745Z,2.45
2017-12-17T10:12:07.994Z,2.03
2017-12-17T10:14:36.267Z,2.20
2017-12-17T10:17:04.526Z,2.15
2017-12-17T10:19:33.622Z,2.22
2017-12-17T10:22:01.898Z,2.00
2017-12-17T10:24:32.930Z,2.10
2017-12-17T10:27:01.914Z,2.30
2017-12-17T10:29:30.133Z,2.70
2017-12-17T10:31:58.334Z,2.10
2017-12-17T10:34:26.536Z,2.25
2017-12-17T10:36:54.744Z,2.33
2017-12-17T10:39:23.119Z,2.33
2017-12-17T10:41:51.322Z,2.53
2017-12-17T10:44:19.600Z,2.28
2017-12-17T10:46:49.003Z,2.58
2017-12-17T10:49:17.312Z,2.05
2017-12-17T10:51:48.419Z,2.70
2017-12-17T10:54:16.866Z,2.50
2017-12-17T10:56:45.099Z,2.17
2017-12-17T10:59:13.434Z,2.00
2017-12-17T11:01:41.700Z,2.47
2017-12-17T11:04:10.033Z,2.50
2017-12-17T11:06:38.301Z,2.15
2017-12-17T11:09:06.570Z,2.55
2017-12-17T11:11:34.804Z,2.40
2017-12-17T11:14:03.179Z,2.60
2017-12-17T11:16:31.482Z,2.30
2017-12-17T11:18:59.702Z,2.75
2017-12-17T11:21:27.902Z,2.20
2017-12-17T11:23:56.923Z,2.15
2017-12-17T11:26:25.274Z,2.15
2017-12-17T11:28:54.368Z,1.90
2017-12-17T11:31:23.370Z,2.42
2017-12-17T11:33:51.666Z,2.55
2017-12-17T11:36:20.848Z,2.85
2017-12-17T11:38:49.130Z,2.03
2017-12-17T11:41:17.445Z,2.30
2017-12-17T11:43:45.703Z,2.28
2017-12-17T11:46:14.054Z,2.17
2017-12-17T11:48:42.320Z,2.40
2017-12-17T11:51:10.551Z,2.60
2017-12-17T11:53:38.772Z,2.42
2017-12-17T11:56:07.802Z,2.45
2017-12-17T11:58:36.079Z,2.30
2017-12-17T12:01:04.354Z,1.90
2017-12-17T12:03:32.593Z,2.45
2017-12-17T12:06:01.588Z,2.47
2017-12-17T12:08:30.574Z,2.40
2017-12-17T12:10:59.613Z,2.20
2017-12-17T12:13:27.837Z,2.00
2017-12-17T12:15:56.905Z,2.33
2017-12-17T12:18:25.180Z,2.08
2017-12-17T12:20:53.524Z,2.05
2017-12-17T12:23:21.835Z,2.45
2017-12-17T12:25:50.355Z,2.28
2017-12-17T12:28:19.386Z,2.28
2017-12-17T12:30:47.632Z,2.10
2017-12-17T12:33:15.861Z,2.08
2017-12-17T12:35:44.115Z,2.37
2017-12-17T12:38:12.334Z,2.60
2017-12-17T12:40:40.584Z,2.42
2017-12-17T12:43:08.815Z,2.40
2017-12-17T12:45:37.214Z,2.15
2017-12-17T12:48:05.479Z,2.62
2017-12-17T12:50:33.725Z,3.60
2017-12-17T12:53:01.970Z,2.70
2017-12-17T12:55:30.189Z,3.00
2017-12-17T12:57:59.198Z,2.87
2017-12-17T13:00:27.493Z,2.65
2017-12-17T13:02:55.758Z,2.55
2017-12-17T13:05:24.006Z,2.87
2017-12-17T13:07:52.982Z,2.35
2017-12-17T13:10:21.259Z,2.80
2017-12-17T13:12:49.512Z,2.55
2017-12-17T13:15:19.395Z,3.10
2017-12-17T13:17:47.669Z,3.35
2017-12-17T13:20:15.879Z,3.40
2017-12-17T13:22:44.109Z,3.25
2017-12-17T13:25:12.333Z,3.10
2017-12-17T13:27:40.549Z,2.95
2017-12-17T13:30:09.535Z,2.90
2017-12-17T13:32:38.545Z,2.90
2017-12-17T13:35:06.789Z,3.25
2017-12-17T13:37:35.037Z,3.10
2017-12-17T13:40:03.242Z,2.90
2017-12-17T13:42:31.479Z,3.55
2017-12-17T13:44:59.742Z,3.37
2017-12-17T13:47:27.967Z,3.55
2017-12-17T13:49:56.176Z,3.92
2017-12-17T13:52:24.398Z,4.03
2017-12-17T13:54:52.563Z,4.30
2017-12-17T13:57:20.803Z,4.47
2017-12-17T13:59:49.090Z,4.93
2017-12-17T14:02:17.348Z,4.45
2017-12-17T14:04:45.579Z,4.40
2017-12-17T14:07:13.883Z,3.55
2017-12-17T14:09:42.918Z,3.22
2017-12-17T14:12:11.851Z,2.90
2017-12-17T14:14:40.090Z,3.30
2017-12-17T14:17:08.320Z,3.40
2017-12-17T14:19:37.330Z,3.30
2017-12-17T14:22:05.526Z,3.40
2017-12-17T14:24:33.719Z,3.47
2017-12-17T14:27:02.082Z,4.07
2017-12-17T14:29:30.314Z,3.37
2017-12-17T14:31:59.295Z,3.25
2017-12-17T14:34:27.585Z,3.28
2017-12-17T14:36:55.850Z,3.10
2017-12-17T14:39:24.132Z,3.47
2017-12-17T14:41:52.375Z,3.00
2017-12-17T14:44:20.709Z,3.22
2017-12-17T14:46:48.947Z,3.28
2017-12-17T14:49:17.184Z,3.17
2017-12-17T14:51:45.398Z,2.87
2017-12-17T14:54:13.639Z,3.17
2017-12-17T14:56:41.911Z,3.30
2017-12-17T14:59:10.157Z,3.40
2017-12-17T15:01:38.580Z,3.20
2017-12-17T15:04:06.828Z,3.03
2017-12-17T15:06:35.064Z,3.60
2017-12-17T15:09:03.319Z,3.15
2017-12-17T15:11:31.535Z,3.50
2017-12-17T15:14:00.526Z,3.30
2017-12-17T15:16:29.904Z,3.58
2017-12-17T15:18:58.195Z,3.28
2017-12-17T15:21:27.213Z,3.58
2017-12-17T15:23:56.334Z,3.40
2017-12-17T15:26:24.650Z,4.05
2017-12-17T15:28:52.881Z,3.53
2017-12-17T15:31:22.638Z,4.00
2017-12-17T15:33:50.856Z,3.35
2017-12-17T15:36:19.063Z,4.05
2017-12-17T15:38:48.179Z,3.83
2017-12-17T15:41:16.455Z,3.75
2017-12-17T15:43:44.677Z,4.75
2017-12-17T15:46:12.967Z,9.10
2017-12-17T15:48:41.238Z,9.05
2017-12-17T15:51:09.456Z,11.05
2017-12-17T15:53:37.703Z,10.32
2017-12-17T15:56:06.048Z,11.02
2017-12-17T15:58:34.398Z,10.23
2017-12-17T16:01:02.708Z,10.48
2017-12-17T16:03:31.554Z,11.40
2017-12-17T16:05:59.831Z,11.40
2017-12-17T16:08:28.064Z,13.00
2017-12-17T16:10:56.366Z,13.68
2017-12-17T16:13:24.660Z,12.40
2017-12-17T16:15:52.901Z,12.37
2017-12-17T16:18:21.419Z,12.45
2017-12-17T16:20:49.747Z,12.52
2017-12-17T16:23:18.064Z,12.20
2017-12-17T16:25:46.501Z,13.75
2017-12-17T16:28:14.768Z,13.10
2017-12-17T16:30:43.188Z,14.82
2017-12-17T16:33:11.482Z,17.60
2017-12-17T16:35:39.700Z,17.90
2017-12-17T16:38:08.008Z,20.48
2017-12-17T16:40:36.305Z,19.02
2017-12-17T16:43:04.605Z,20.30
2017-12-17T16:45:33.436Z,23.05
2017-12-17T16:48:01.885Z,25.58
2017-12-17T16:50:30.970Z,27.35
2017-12-17T16:53:01.201Z,26.75
2017-12-17T16:55:29.523Z,24.98
2017-12-17T16:57:57.806Z,23.42
2017-12-17T17:00:26.833Z,19.80
2017-12-17T17:02:55.157Z,18.77
2017-12-17T17:05:23.438Z,17.25
2017-12-17T17:07:51.720Z,15.93
2017-12-17T17:10:20.068Z,15.77
2017-12-17T17:12:48.313Z,15.15
2017-12-17T17:15:16.664Z,14.95
2017-12-17T17:17:44.969Z,12.73
2017-12-17T17:20:13.193Z,12.70
2017-12-17T17:22:41.559Z,12.13
2017-12-17T17:25:09.899Z,12.73
2017-12-17T17:27:38.169Z,11.60
2017-12-17T17:30:06.421Z,10.43
2017-12-17T17:32:34.722Z,10.23
2017-12-17T17:35:03.108Z,10.35
2017-12-17T17:37:32.383Z,9.20
2017-12-17T17:40:00.678Z,8.40
2017-12-17T17:42:29.317Z,8.40
2017-12-17T17:45:02.212Z,8.02
2017-12-17T17:47:30.523Z,7.97
2017-12-17T17:49:58.783Z,7.90
2017-12-17T17:52:27.020Z,9.00
2017-12-17T17:54:55.362Z,8.07
2017-12-17T17:57:23.738Z,8.30
2017-12-17T17:59:52.478Z,8.50
2017-12-17T18:02:20.770Z,7.57
2017-12-17T18:04:49.031Z,7.75
2017-12-17T18:07:17.300Z,7.45
2017-12-17T18:09:45.554Z,7.32
2017-12-17T18:12:14.623Z,8.32
2017-12-17T18:14:42.921Z,8.48
2017-12-17T18:17:11.982Z,8.75
2017-12-17T18:19:40.279Z,7.78
2017-12-17T18:22:08.522Z,6.85
2017-12-17T18:24:36.768Z,7.62
2017-12-17T18:27:05.059Z,8.13
2017-12-17T18:29:34.116Z,7.43
2017-12-17T18:32:02.531Z,7.97
2017-12-17T18:34:30.772Z,7.68
2017-12-17T18:36:59.791Z,8.15
2017-12-17T18:39:28.855Z,8.00
2017-12-17T18:41:57.109Z,6.78
2017-12-17T18:44:25.347Z,7.40
2017-12-17T18:46:53.659Z,7.97
2017-12-17T18:49:21.915Z,8.52
2017-12-17T18:51:50.151Z,7.47
2017-12-17T18:54:18.562Z,7.55
2017-12-17T18:56:46.883Z,7.47
2017-12-17T18:59:15.142Z,8.50
2017-12-17T19:01:43.391Z,6.90
2017-12-17T19:04:11.654Z,7.40
2017-12-17T19:06:39.898Z,7.07
2017-12-17T19:09:08.155Z,6.78
2017-12-17T19:11:36.479Z,8.15
2017-12-17T19:14:04.718Z,7.72
2017-12-17T19:16:32.945Z,7.85
2017-12-17T19:19:01.167Z,8.18
2017-12-17T19:21:29.391Z,7.80
2017-12-17T19:23:57.748Z,7.35
2017-12-17T19:26:26.797Z,7.75
2017-12-17T19:28:55.128Z,7.72
2017-12-17T19:31:23.467Z,8.45
2017-12-17T19:33:51.845Z,8.55
2017-12-17T19:36:20.117Z,7.12
2017-12-17T19:38:49.920Z,7.68
2017-12-17T19:41:19.172Z,8.27
2017-12-17T19:43:47.446Z,6.80
2017-12-17T19:46:15.748Z,7.70
2017-12-17T19:48:44.050Z,7.50
2017-12-17T19:51:12.355Z,6.55
2017-12-17T19:53:41.396Z,7.78
2017-12-17T19:56:09.730Z,7.00
2017-12-17T19:58:38.051Z,7.53
2017-12-17T20:01:06.940Z,7.20
2017-12-17T20:03:35.220Z,7.55
2017-12-17T20:06:03.610Z,7.37
2017-12-17T20:08:31.888Z,6.93
2017-12-17T20:11:00.172Z,6.82
2017-12-17T20:13:28.441Z,7.28
2017-12-17T20:15:56.723Z,6.90
2017-12-17T20:18:27.787Z,7.37
2017-12-17T20:20:56.095Z,7.25
2017-12-17T20:23:24.360Z,7.05
2017-12-17T20:25:53.437Z,6.85
2017-12-17T20:28:23.633Z,6.53
2017-12-17T20:30:51.951Z,6.82
2017-12-17T20:33:21.047Z,6.62
2017-12-17T20:35:50.085Z,7.25
2017-12-17T20:38:18.547Z,6.72
2017-12-17T20:40:46.827Z,7.55
2017-12-17T20:43:15.127Z,6.25
2017-12-17T20:45:43.406Z,6.97
2017-12-17T20:48:11.710Z,6.55
2017-12-17T20:50:39.960Z,6.47
2017-12-17T20:53:08.257Z,6.22
2017-12-17T20:55:36.550Z,6.55
2017-12-17T20:58:04.816Z,6.55
2017-12-17T21:00:33.071Z,6.90
2017-12-17T21:03:01.320Z,6.35
2017-12-17T21:05:29.573Z,6.50
2017-12-17T21:07:58.608Z,6.28
2017-12-17T21:10:26.868Z,6.22
2017-12-17T21:12:55.127Z,6.50
2017-12-17T21:15:23.503Z,6.37
2017-12-17T21:17:52.591Z,6.12
2017-12-17T21:20:20.870Z,6.87
2017-12-17T21:22:49.552Z,6.07
2017-12-17T21:25:17.877Z,6.28
2017-12-17T21:27:46.160Z,6.15
2017-12-17T21:30:15.168Z,6.03
2017-12-17T21:32:43.484Z,6.20
2017-12-17T21:35:11.749Z,6.03
2017-12-17T21:37:40.016Z,5.95
2017-12-17T21:40:09.027Z,5.55
2017-12-17T21:42:38.222Z,5.87
2017-12-17T21:45:07.419Z,5.40
2017-12-17T21:47:37.636Z,5.82
2017-12-17T21:50:06.059Z,5.57
2017-12-17T21:52:35.197Z,5.95
2017-12-17T21:55:03.447Z,5.90
2017-12-17T21:57:31.707Z,6.30
2017-12-17T22:00:01.784Z,6.60
2017-12-17T22:02:30.879Z,6.35
2017-12-17T22:04:59.998Z,6.10
2017-12-17T22:07:28.247Z,6.43
2017-12-17T22:09:56.525Z,6.97
2017-12-17T22:12:25.598Z,6.97
2017-12-17T22:14:53.830Z,6.25
2017-12-17T22:17:22.102Z,6.62
2017-12-17T22:19:50.439Z,6.50
2017-12-17T22:22:18.678Z,6.97
2017-12-17T22:24:47.023Z,6.65
2017-12-17T22:27:15.279Z,6.30
2017-12-17T22:29:43.537Z,7.35
2017-12-17T22:32:11.797Z,7.95
2017-12-17T22:34:40.025Z,7.78
2017-12-17T22:37:08.283Z,7.20
2017-12-17T22:39:37.960Z,7.70
2017-12-17T22:42:06.217Z,8.65
2017-12-17T22:44:34.547Z,7.65
2017-12-17T22:47:03.632Z,8.68
2017-12-17T22:49:31.887Z,8.23
2017-12-17T22:52:00.177Z,8.70
2017-12-17T22:54:28.449Z,7.93
2017-12-17T22:56:58.911Z,7.70
2017-12-17T22:59:27.999Z,8.25
2017-12-17T23:01:57.036Z,8.57
2017-12-17T23:04:25.300Z,9.05
2017-12-17T23:06:53.549Z,9.18
2017-12-17T23:09:21.911Z,9.35
2017-12-17T23:11:50.240Z,9.85
2017-12-17T23:14:18.541Z,9.32
2017-12-17T23:16:46.801Z,10.20
2017-12-17T23:19:15.383Z,9.30
2017-12-17T23:21:44.387Z,9.68
2017-12-17T23:24:12.654Z,9.32
2017-12-17T23:26:40.936Z,10.15
2017-12-17T23:29:09.174Z,9.13
2017-12-17T23:31:37.468Z,10.15
2017-12-17T23:34:05.719Z,10.32
2017-12-17T23:36:34.750Z,10.60
2017-12-17T23:39:03.024Z,10.25
2017-12-17T23:41:31.436Z,11.15
2017-12-17T23:43:59.715Z,10.30
2017-12-17T23:46:27.999Z,10.68
2017-12-17T23:48:57.049Z,10.73
2017-12-17T23:51:25.383Z,11.20
2017-12-17T23:53:54.747Z,12.30
2017-12-17T23:56:22.972Z,12.15
2017-12-17T23:58:51.650Z,11.07
